createdAt,value
2022-09-13T00:00:44.709Z,4.32
2022-09-13T00:03:12.465Z,4.10
2022-09-13T00:05:39.752Z,4.38
2022-09-13T00:08:07.438Z,4.30
2022-09-13T00:10:36.195Z,3.97
2022-09-13T00:13:03.531Z,4.32
2022-09-13T00:15:30.258Z,3.97
2022-09-13T00:17:56.908Z,4.20
2022-09-13T00:20:24.016Z,4.57
2022-09-13T00:22:50.619Z,4.97
2022-09-13T00:25:18.108Z,4.75
2022-09-13T00:27:45.113Z,4.70
2022-09-13T00:30:12.581Z,4.53
2022-09-13T00:32:39.683Z,4.40
2022-09-13T00:35:07.620Z,5.00
2022-09-13T00:37:34.380Z,5.10
2022-09-13T00:40:02.110Z,5.05
2022-09-13T00:42:32.668Z,5.35
2022-09-13T00:45:06.401Z,5.10
2022-09-13T00:47:40.824Z,5.05
2022-09-13T00:50:11.504Z,5.22
2022-09-13T00:52:42.757Z,4.80
2022-09-13T00:55:25.723Z,4.70
2022-09-13T00:57:54.800Z,5.60
2022-09-13T01:00:22.111Z,4.60
2022-09-13T01:03:11.976Z,5.68
2022-09-13T01:05:43.796Z,5.53
2022-09-13T01:08:15.923Z,6.15
2022-09-13T01:10:44.175Z,6.00
2022-09-13T01:13:17.708Z,6.60
2022-09-13T01:15:44.720Z,6.18
2022-09-13T01:18:11.797Z,6.22
2022-09-13T01:20:58.678Z,5.45
2022-09-13T01:24:01.720Z,6.40
2022-09-13T01:26:52.628Z,7.25
2022-09-13T01:29:57.039Z,7.07
2022-09-13T01:32:48.731Z,7.32
2022-09-13T01:35:38.946Z,7.40
2022-09-13T01:38:21.455Z,7.68
2022-09-13T01:41:04.717Z,7.90
2022-09-13T01:44:08.695Z,7.53
2022-09-13T01:46:39.334Z,7.40
2022-09-13T01:49:31.635Z,7.95
2022-09-13T01:52:17.234Z,7.57
2022-09-13T01:57:30.732Z,7.00
2022-09-13T02:00:04.434Z,7.05
2022-09-13T02:02:50.811Z,8.18
2022-09-13T02:05:31.629Z,6.70
2022-09-13T02:08:03.575Z,7.80
2022-09-13T02:10:36.287Z,7.75
2022-09-13T02:13:06.946Z,6.97
2022-09-13T02:15:47.441Z,6.93
2022-09-13T02:18:18.193Z,7.38
2022-09-13T02:20:48.747Z,6.72
2022-09-13T02:23:23.998Z,7.55
2022-09-13T02:25:53.515Z,7.10
2022-09-13T02:28:28.378Z,6.47
2022-09-13T02:30:59.176Z,7.18
2022-09-13T02:33:30.704Z,6.50
2022-09-13T02:36:14.512Z,6.78
2022-09-13T02:38:51.790Z,6.57
2022-09-13T02:41:35.588Z,6.50
2022-09-13T02:44:11.894Z,6.90
2022-09-13T02:47:14.104Z,7.03
2022-09-13T02:49:59.955Z,6.18
2022-09-13T02:52:41.545Z,6.70
2022-09-13T02:55:21.566Z,7.05
2022-09-13T02:57:59.671Z,6.95
2022-09-13T03:00:26.509Z,6.32
2022-09-13T03:02:54.747Z,6.03
2022-09-13T03:05:21.456Z,6.10
2022-09-13T03:07:51.633Z,6.78
2022-09-13T03:10:18.475Z,6.38
2022-09-13T03:13:05.827Z,6.55
2022-09-13T03:16:06.984Z,6.15
2022-09-13T03:18:42.940Z,6.72
2022-09-13T03:21:27.611Z,6.90
2022-09-13T03:24:13.198Z,6.47
2022-09-13T03:29:45.485Z,6.45
2022-09-13T03:32:29.789Z,6.75
2022-09-13T03:35:22.694Z,7.75
2022-09-13T03:37:53.499Z,7.22
2022-09-13T03:40:34.408Z,8.55
2022-09-13T03:43:13.163Z,9.13
2022-09-13T03:45:48.333Z,8.50
2022-09-13T03:48:16.277Z,8.82
2022-09-13T03:50:46.434Z,8.57
2022-09-13T03:53:19.712Z,7.60
2022-09-13T03:55:46.603Z,8.32
2022-09-13T03:58:15.945Z,7.57
2022-09-13T04:00:44.581Z,7.45
2022-09-13T04:03:12.403Z,7.50
2022-09-13T04:05:39.146Z,7.53
2022-09-13T04:08:07.538Z,9.23
2022-09-13T04:10:36.279Z,7.30
2022-09-13T04:13:03.080Z,8.50
2022-09-13T04:15:33.242Z,7.47
2022-09-13T04:18:01.001Z,7.85
2022-09-13T04:20:29.655Z,8.18
2022-09-13T04:22:57.628Z,7.85
2022-09-13T04:25:24.830Z,7.25
2022-09-13T04:27:55.799Z,8.80
2022-09-13T04:30:23.482Z,8.60
2022-09-13T04:32:50.368Z,9.20
2022-09-13T04:35:18.023Z,9.10
2022-09-13T04:37:45.029Z,8.38
2022-09-13T04:40:12.014Z,9.38
2022-09-13T04:42:38.867Z,9.05
2022-09-13T04:45:06.528Z,9.32
2022-09-13T04:47:33.163Z,8.82
2022-09-13T04:52:26.439Z,8.32
2022-09-13T04:54:53.070Z,7.88
2022-09-13T04:57:19.728Z,7.82
2022-09-13T05:02:12.925Z,8.18
2022-09-13T05:04:39.651Z,8.23
2022-09-13T05:07:06.303Z,9.00
2022-09-13T05:12:00.011Z,8.98
2022-09-13T05:14:26.677Z,9.80
2022-09-13T05:16:53.398Z,9.52
2022-09-13T05:19:20.165Z,9.65
2022-09-13T05:21:46.825Z,9.25
2022-09-13T05:26:40.046Z,9.23
2022-09-13T05:29:06.747Z,9.63
2022-09-13T05:31:36.832Z,10.43
2022-09-13T05:34:10.472Z,10.23
2022-09-13T05:36:37.966Z,10.20
2022-09-13T05:39:30.335Z,10.57
2022-09-13T05:41:52.136Z,10.30
2022-09-13T05:46:48.810Z,11.05
2022-09-13T05:49:15.630Z,10.43
2022-09-13T05:51:42.360Z,10.60
2022-09-13T05:54:12.506Z,11.25
2022-09-13T05:56:39.779Z,12.77
2022-09-13T05:59:06.784Z,12.10
2022-09-13T06:01:33.470Z,13.57
2022-09-13T06:04:00.636Z,13.25
2022-09-13T06:06:27.496Z,13.15
2022-09-13T06:08:56.218Z,13.27
2022-09-13T06:11:23.942Z,13.77
2022-09-13T06:13:51.027Z,13.82
2022-09-13T06:16:17.969Z,15.43
2022-09-13T06:18:45.023Z,14.55
2022-09-13T06:21:17.988Z,15.02
2022-09-13T06:23:49.456Z,16.17
2022-09-13T06:26:17.908Z,15.45
2022-09-13T06:28:49.049Z,16.77
2022-09-13T06:31:17.749Z,16.80
2022-09-13T06:33:44.994Z,17.10
2022-09-13T06:36:20.151Z,17.25
2022-09-13T06:38:51.217Z,18.67
2022-09-13T06:41:20.652Z,17.77
2022-09-13T06:43:48.141Z,18.40
2022-09-13T06:46:20.459Z,16.70
2022-09-13T06:48:50.752Z,17.58
2022-09-13T06:51:19.480Z,16.85
2022-09-13T06:53:48.355Z,17.10
2022-09-13T06:56:18.226Z,17.27
2022-09-13T06:58:47.413Z,17.30
2022-09-13T07:01:18.404Z,18.05
2022-09-13T07:03:47.505Z,18.23
2022-09-13T07:06:20.273Z,18.88
2022-09-13T07:08:50.236Z,18.30
2022-09-13T07:11:18.647Z,19.02
2022-09-13T07:13:55.447Z,19.98
2022-09-13T07:16:25.118Z,20.73
2022-09-13T07:18:57.387Z,20.00
2022-09-13T07:21:24.149Z,18.48
2022-09-13T07:23:52.402Z,18.98
2022-09-13T07:26:19.465Z,18.70
2022-09-13T07:28:48.992Z,17.98
2022-09-13T07:31:24.925Z,16.73
2022-09-13T07:34:00.370Z,17.02
2022-09-13T07:36:28.947Z,14.93
2022-09-13T07:38:55.690Z,13.80
2022-09-13T07:41:25.299Z,13.73
2022-09-13T07:43:52.358Z,12.50
2022-09-13T07:46:24.784Z,11.75
2022-09-13T07:48:56.451Z,11.63
2022-09-13T07:51:25.524Z,11.57
2022-09-13T07:53:57.592Z,11.77
2022-09-13T07:56:27.666Z,11.07
2022-09-13T07:58:55.263Z,10.10
2022-09-13T08:01:23.270Z,10.05
2022-09-13T08:03:57.957Z,9.75
2022-09-13T08:06:26.386Z,8.35
2022-09-13T08:08:53.611Z,7.90
2022-09-13T08:11:32.687Z,6.95
2022-09-13T08:14:00.652Z,6.50
2022-09-13T08:16:28.801Z,6.50
2022-09-13T08:18:57.822Z,5.82
2022-09-13T08:21:25.308Z,5.05
2022-09-13T08:23:56.936Z,5.85
2022-09-13T08:26:23.751Z,4.40
2022-09-13T08:28:55.140Z,3.83
2022-09-13T08:31:23.218Z,3.92
2022-09-13T08:33:50.099Z,3.83
2022-09-13T08:36:17.872Z,4.13
2022-09-13T08:38:48.505Z,4.25
2022-09-13T08:41:21.039Z,3.90
2022-09-13T08:44:04.672Z,3.67
2022-09-13T08:46:44.472Z,3.10
2022-09-13T08:49:29.316Z,2.80
2022-09-13T08:52:06.530Z,3.10
2022-09-13T08:54:33.286Z,4.15
2022-09-13T08:57:45.559Z,8.32
2022-09-13T09:00:32.068Z,2.85
2022-09-13T09:03:28.606Z,2.70
2022-09-13T09:05:55.425Z,2.50
2022-09-13T09:08:38.168Z,2.83
2022-09-13T09:11:14.453Z,2.67
2022-09-13T09:13:44.760Z,2.00
2022-09-13T09:16:28.820Z,1.50
2022-09-13T09:18:57.748Z,1.70
2022-09-13T09:21:24.770Z,1.55
2022-09-13T09:23:53.894Z,1.55
2022-09-13T09:26:26.406Z,2.22
2022-09-13T09:29:05.603Z,1.63
2022-09-13T09:31:39.555Z,1.55
2022-09-13T09:34:42.534Z,1.23
2022-09-13T09:37:22.606Z,2.25
2022-09-13T09:39:50.824Z,1.40
2022-09-13T09:42:21.265Z,1.30
2022-09-13T09:44:57.492Z,1.60
2022-09-13T09:47:29.577Z,1.33
2022-09-13T09:50:18.321Z,1.33
2022-09-13T09:52:56.776Z,1.30
2022-09-13T09:55:50.347Z,1.40
2022-09-13T09:58:18.839Z,1.20
2022-09-13T10:00:58.291Z,1.33
2022-09-13T10:03:33.163Z,1.33
2022-09-13T10:06:14.321Z,1.90
2022-09-13T10:08:43.828Z,3.17
2022-09-13T10:11:10.754Z,2.03
2022-09-13T10:13:38.703Z,1.20
2022-09-13T10:16:23.037Z,1.30
2022-09-13T10:18:49.839Z,1.27
2022-09-13T10:21:19.481Z,1.85
2022-09-13T10:23:50.691Z,1.95
2022-09-13T10:26:23.198Z,1.83
2022-09-13T10:29:02.039Z,1.88
2022-09-13T10:31:46.348Z,1.60
2022-09-13T10:34:23.000Z,3.35
2022-09-13T10:37:11.527Z,1.63
2022-09-13T10:39:54.921Z,1.70
2022-09-13T10:42:24.355Z,1.25
2022-09-13T10:44:57.389Z,1.58
2022-09-13T10:47:35.690Z,1.42
2022-09-13T10:50:22.152Z,1.50
2022-09-13T10:52:54.215Z,2.47
2022-09-13T10:55:31.502Z,1.40
2022-09-13T10:58:07.573Z,2.70
2022-09-13T11:01:00.844Z,2.05
2022-09-13T11:04:11.054Z,1.73
2022-09-13T11:07:03.356Z,1.45
2022-09-13T11:09:38.543Z,1.38
2022-09-13T11:12:38.660Z,1.40
2022-09-13T11:15:28.901Z,1.48
2022-09-13T11:18:17.548Z,1.60
2022-09-13T11:21:07.471Z,1.58
2022-09-13T11:24:00.356Z,1.30
2022-09-13T11:26:38.867Z,1.55
2022-09-13T11:29:38.790Z,1.55
2022-09-13T11:32:17.260Z,1.40
2022-09-13T11:35:22.703Z,1.60
2022-09-13T11:38:23.637Z,1.20
2022-09-13T11:41:14.013Z,2.20
2022-09-13T11:43:57.420Z,1.35
2022-09-13T11:46:41.991Z,1.25
2022-09-13T11:49:20.539Z,1.27
2022-09-13T11:52:05.355Z,1.60
2022-09-13T11:55:01.876Z,1.42
2022-09-13T11:57:34.363Z,1.17
2022-09-13T12:00:10.547Z,1.35
2022-09-13T12:02:52.752Z,1.10
2022-09-13T12:05:23.693Z,1.45
2022-09-13T12:08:05.123Z,1.25
2022-09-13T12:10:52.807Z,1.10
2022-09-13T12:13:26.629Z,1.30
2022-09-13T12:15:59.106Z,1.33
2022-09-13T12:18:34.548Z,1.30
2022-09-13T12:21:08.899Z,1.10
2022-09-13T12:24:16.800Z,1.40
2022-09-13T12:26:59.238Z,1.20
2022-09-13T12:29:46.128Z,0.90
2022-09-13T12:32:14.328Z,1.38
2022-09-13T12:34:49.646Z,1.42
2022-09-13T12:37:38.520Z,1.75
2022-09-13T12:40:23.481Z,1.30
2022-09-13T12:43:08.865Z,1.23
2022-09-13T12:45:46.003Z,1.20
2022-09-13T12:48:40.447Z,1.05
2022-09-13T12:51:13.286Z,1.13
2022-09-13T12:54:16.857Z,0.82
2022-09-13T12:57:07.356Z,1.20
2022-09-13T13:00:00.098Z,1.15
2022-09-13T13:02:42.714Z,0.90
2022-09-13T13:05:24.774Z,1.13
2022-09-13T13:07:57.215Z,0.85
2022-09-13T13:10:35.842Z,1.10
2022-09-13T13:13:11.341Z,1.10
2022-09-13T13:15:37.927Z,1.00
2022-09-13T13:18:31.950Z,1.20
2022-09-13T13:20:58.556Z,1.15
2022-09-13T13:23:35.177Z,1.00
2022-09-13T13:26:02.043Z,0.90
2022-09-13T13:28:52.843Z,0.90
2022-09-13T13:34:22.527Z,0.80
2022-09-13T13:36:53.380Z,0.80
2022-09-13T13:39:25.934Z,0.90
2022-09-13T13:42:26.556Z,0.85
2022-09-13T13:44:53.174Z,0.80
2022-09-13T13:47:19.744Z,0.90
2022-09-13T13:50:14.643Z,0.82
2022-09-13T13:52:47.645Z,1.23
2022-09-13T13:55:41.199Z,0.90
2022-09-13T13:58:07.766Z,0.90
2022-09-13T14:00:36.700Z,0.90
2022-09-13T14:03:10.143Z,0.77
2022-09-13T14:06:02.616Z,1.35
2022-09-13T14:08:36.734Z,1.15
2022-09-13T14:11:37.213Z,1.15
2022-09-13T14:14:27.803Z,1.10
2022-09-13T14:17:00.390Z,0.90
2022-09-13T14:19:45.509Z,0.60
2022-09-13T14:22:23.092Z,0.93
2022-09-13T14:25:10.719Z,1.00
2022-09-13T14:27:37.964Z,0.70
2022-09-13T14:30:34.805Z,0.85
2022-09-13T14:33:01.818Z,1.00
2022-09-13T14:35:33.468Z,0.85
2022-09-13T14:38:23.507Z,0.80
2022-09-13T14:40:52.346Z,0.93
2022-09-13T14:43:24.888Z,1.00
2022-09-13T14:46:07.332Z,0.80
2022-09-13T14:48:46.252Z,1.13
2022-09-13T14:51:20.140Z,0.73
2022-09-13T14:53:50.343Z,1.27
2022-09-13T14:56:25.289Z,0.80
2022-09-13T14:58:55.856Z,0.90
2022-09-13T15:01:31.041Z,0.73
2022-09-13T15:04:00.027Z,1.08
2022-09-13T15:06:29.571Z,1.00
2022-09-13T15:09:11.469Z,0.80
2022-09-13T15:11:54.974Z,1.13
2022-09-13T15:14:26.480Z,0.85
2022-09-13T15:16:59.249Z,0.85
2022-09-13T15:19:36.311Z,1.05
2022-09-13T15:22:26.225Z,1.27
2022-09-13T15:24:55.187Z,1.10
2022-09-13T15:27:28.499Z,1.08
2022-09-13T15:30:04.142Z,0.82
2022-09-13T15:32:32.889Z,1.17
2022-09-13T15:35:01.447Z,0.90
2022-09-13T15:37:34.544Z,0.93
2022-09-13T15:40:18.563Z,1.08
2022-09-13T15:42:50.107Z,1.02
2022-09-13T15:45:19.615Z,1.00
2022-09-13T15:47:51.576Z,0.98
2022-09-13T15:50:21.031Z,0.98
2022-09-13T15:52:47.670Z,1.00
2022-09-13T15:55:14.398Z,1.20
2022-09-13T15:57:44.326Z,1.20
2022-09-13T16:00:16.989Z,0.98
2022-09-13T16:02:44.176Z,0.90
2022-09-13T16:05:11.963Z,1.00
2022-09-13T16:07:39.820Z,1.02
2022-09-13T16:10:19.484Z,1.00
2022-09-13T16:12:46.518Z,1.17
2022-09-13T16:15:13.292Z,1.05
2022-09-13T16:17:40.858Z,1.17
2022-09-13T16:20:11.047Z,0.70
2022-09-13T16:22:37.917Z,1.00
2022-09-13T16:25:04.888Z,0.90
2022-09-13T16:27:34.075Z,1.00
2022-09-13T16:30:01.173Z,1.20
2022-09-13T16:32:27.947Z,1.15
2022-09-13T16:34:54.591Z,0.90
2022-09-13T16:37:21.346Z,1.10
2022-09-13T16:39:48.083Z,1.02
2022-09-13T16:42:17.375Z,1.10
2022-09-13T16:44:44.364Z,1.20
2022-09-13T16:47:11.154Z,1.05
2022-09-13T16:49:38.064Z,1.05
2022-09-13T16:52:05.307Z,1.20
2022-09-13T16:54:34.386Z,1.15
2022-09-13T16:57:03.724Z,0.93
2022-09-13T16:59:31.600Z,1.13
2022-09-13T17:01:58.491Z,0.82
2022-09-13T17:04:25.783Z,0.80
2022-09-13T17:06:52.404Z,0.65
2022-09-13T17:09:21.131Z,0.93
2022-09-13T17:11:47.827Z,1.00
2022-09-13T17:14:17.265Z,0.80
2022-09-13T17:16:51.978Z,1.20
2022-09-13T17:19:22.527Z,0.68
2022-09-13T17:21:49.773Z,0.90
2022-09-13T17:24:16.895Z,1.10
2022-09-13T17:26:44.311Z,0.90
2022-09-13T17:29:15.123Z,1.02
2022-09-13T17:31:43.176Z,1.00
2022-09-13T17:34:11.139Z,1.50
2022-09-13T17:36:39.699Z,0.90
2022-09-13T17:39:07.328Z,1.00
2022-09-13T17:41:34.055Z,0.90
2022-09-13T17:44:00.885Z,1.00
2022-09-13T17:46:29.975Z,1.00
2022-09-13T17:48:58.943Z,1.10
2022-09-13T17:51:29.255Z,1.25
2022-09-13T17:53:58.783Z,1.10
2022-09-13T17:56:30.453Z,1.38
2022-09-13T17:59:05.874Z,1.20
2022-09-13T18:01:38.033Z,1.50
2022-09-13T18:04:04.776Z,1.17
2022-09-13T18:06:31.648Z,0.90
2022-09-13T18:08:58.292Z,1.10
2022-09-13T18:11:25.321Z,1.25
2022-09-13T18:13:52.437Z,1.33
2022-09-13T18:16:23.039Z,1.63
2022-09-13T18:18:51.113Z,1.48
2022-09-13T18:21:20.159Z,1.58
2022-09-13T18:23:48.745Z,1.50
2022-09-13T18:26:17.771Z,1.20
2022-09-13T18:28:44.549Z,1.00
2022-09-13T18:31:17.869Z,1.20
2022-09-13T18:33:45.582Z,1.75
2022-09-13T18:36:14.503Z,1.52
2022-09-13T18:38:43.621Z,1.58
2022-09-13T18:41:12.905Z,1.30
2022-09-13T18:43:41.304Z,1.40
2022-09-13T18:46:12.133Z,1.52
2022-09-13T18:48:52.606Z,1.40
2022-09-13T18:51:21.917Z,1.40
2022-09-13T18:53:49.827Z,1.50
2022-09-13T18:56:20.283Z,1.33
2022-09-13T18:58:51.195Z,1.35
2022-09-13T19:01:25.225Z,1.15
2022-09-13T19:03:54.238Z,1.23
2022-09-13T19:06:25.303Z,1.27
2022-09-13T19:08:56.392Z,1.58
2022-09-13T19:11:46.304Z,1.65
2022-09-13T19:14:23.253Z,1.85
2022-09-13T19:16:52.396Z,1.30
2022-09-13T19:19:19.423Z,1.50
2022-09-13T19:21:46.761Z,1.25
2022-09-13T19:24:18.873Z,1.70
2022-09-13T19:26:51.309Z,1.50
2022-09-13T19:29:21.621Z,1.70
2022-09-13T19:31:50.009Z,1.38
2022-09-13T19:34:19.459Z,1.60
2022-09-13T19:36:46.925Z,1.52
2022-09-13T19:39:14.038Z,2.00
2022-09-13T19:41:41.433Z,1.35
2022-09-13T19:44:09.459Z,1.45
2022-09-13T19:46:39.042Z,1.20
2022-09-13T19:49:08.083Z,1.50
2022-09-13T19:51:37.571Z,1.00
2022-09-13T19:54:05.897Z,1.60
2022-09-13T19:56:39.111Z,1.60
2022-09-13T19:59:08.188Z,1.42
2022-09-13T20:01:37.714Z,1.45
2022-09-13T20:04:06.967Z,1.13
2022-09-13T20:06:36.437Z,1.02
2022-09-13T20:09:04.180Z,1.10
2022-09-13T20:11:31.820Z,1.10
2022-09-13T20:13:59.986Z,1.50
2022-09-13T20:16:28.962Z,1.42
2022-09-13T20:18:59.816Z,1.65
2022-09-13T20:21:28.494Z,1.17
2022-09-13T20:24:03.860Z,1.10
2022-09-13T20:26:32.371Z,1.40
2022-09-13T20:29:02.140Z,1.30
2022-09-13T20:31:30.479Z,1.35
2022-09-13T20:34:00.924Z,1.20
2022-09-13T20:36:30.812Z,1.42
2022-09-13T20:39:02.263Z,1.70
2022-09-13T20:41:31.222Z,1.20
2022-09-13T20:43:59.655Z,1.40
2022-09-13T20:46:27.077Z,1.30
2022-09-13T20:48:53.802Z,1.33
2022-09-13T20:51:22.217Z,1.35
2022-09-13T20:53:55.799Z,1.42
2022-09-13T20:56:23.500Z,1.08
2022-09-13T20:58:57.429Z,1.17
2022-09-13T21:01:25.556Z,1.50
2022-09-13T21:03:54.181Z,1.10
2022-09-13T21:06:22.804Z,1.27
2022-09-13T21:08:50.524Z,1.63
2022-09-13T21:11:23.455Z,1.10
2022-09-13T21:16:23.962Z,1.50
2022-09-13T21:18:51.859Z,1.63
2022-09-13T21:21:21.944Z,1.65
2022-09-13T21:23:48.647Z,1.25
2022-09-13T21:26:17.979Z,1.40
2022-09-13T21:28:44.689Z,1.60
2022-09-13T21:31:16.093Z,1.40
2022-09-13T21:33:47.241Z,1.30
2022-09-13T21:36:14.233Z,1.67
2022-09-13T21:38:41.106Z,1.30
2022-09-13T21:41:13.617Z,1.63
2022-09-13T21:43:41.066Z,1.30
2022-09-13T21:46:10.313Z,1.25
2022-09-13T21:48:37.077Z,1.17
2022-09-13T21:53:35.492Z,1.00
2022-09-13T21:56:10.629Z,1.27
2022-09-13T21:58:38.171Z,1.50
2022-09-13T22:01:13.051Z,1.15
2022-09-13T22:03:42.030Z,1.50
2022-09-13T22:06:11.382Z,0.95
2022-09-13T22:08:40.100Z,1.17
2022-09-13T22:11:09.655Z,1.30
2022-09-13T22:13:45.220Z,1.30
2022-09-13T22:16:21.950Z,1.63
2022-09-13T22:18:51.201Z,1.30
2022-09-13T22:21:20.698Z,1.27
2022-09-13T22:23:47.736Z,1.20
2022-09-13T22:26:20.272Z,1.40
2022-09-13T22:28:48.021Z,1.10
2022-09-13T22:31:20.998Z,1.27
2022-09-13T22:36:16.710Z,1.40
2022-09-13T22:38:45.081Z,1.40
2022-09-13T22:41:17.220Z,1.35
2022-09-13T22:43:44.421Z,1.25
2022-09-13T22:46:19.450Z,1.20
2022-09-13T22:48:46.398Z,1.15
2022-09-13T22:51:16.619Z,1.55
2022-09-13T22:53:45.080Z,1.38
2022-09-13T22:56:16.361Z,1.67
2022-09-13T22:58:43.385Z,1.48
2022-09-13T23:01:13.084Z,1.55
2022-09-13T23:03:41.340Z,1.50
2022-09-13T23:06:10.061Z,1.30
2022-09-13T23:08:38.037Z,1.48
2022-09-13T23:11:24.896Z,1.40
2022-09-13T23:13:53.707Z,1.60
2022-09-13T23:16:41.082Z,1.40
2022-09-13T23:19:08.113Z,1.13
2022-09-13T23:21:36.777Z,1.33
2022-09-13T23:24:06.007Z,1.10
2022-09-13T23:26:34.007Z,1.10
2022-09-13T23:29:02.333Z,1.38
2022-09-13T23:31:35.033Z,1.50
2022-09-13T23:34:04.377Z,1.40
2022-09-13T23:36:34.345Z,1.20
2022-09-13T23:39:04.295Z,1.48
2022-09-13T23:41:33.035Z,1.52
2022-09-13T23:44:00.771Z,1.55
2022-09-13T23:46:27.482Z,1.20
2022-09-13T23:48:54.120Z,1.20
2022-09-13T23:53:56.501Z,1.17
2022-09-13T23:56:25.208Z,1.05
2022-09-13T23:58:52.296Z,1.40
